sensor_id;sensor_type;location;lat;lon;timestamp;P1;durP1;ratioP1;P2;durP2;ratioP2
26488;SDS011;14169;43.684;10.484;2023-03-08T00:02:16;4.20;;;2.83;;
26488;SDS011;14169;43.684;10.484;2023-03-08T00:04:42;5.15;;;2.83;;
26488;SDS011;14169;43.684;10.484;2023-03-08T00:07:07;2.85;;;2.42;;
26488;SDS011;14169;43.684;10.484;2023-03-08T00:09:33;5.22;;;3.50;;
26488;SDS011;14169;43.684;10.484;2023-03-08T00:11:58;4.47;;;3.10;;
26488;SDS011;14169;43.684;10.484;2023-03-08T00:14:24;5.40;;;2.60;;
26488;SDS011;14169;43.684;10.484;2023-03-08T00:16:49;4.70;;;2.97;;
26488;SDS011;14169;43.684;10.484;2023-03-08T00:19:15;3.85;;;2.97;;
26488;SDS011;14169;43.684;10.484;2023-03-08T00:21:40;4.80;;;3.22;;
26488;SDS011;14169;43.684;10.484;2023-03-08T00:24:06;6.35;;;2.90;;
26488;SDS011;14169;43.684;10.484;2023-03-08T00:26:31;4.57;;;2.80;;
26488;SDS011;14169;43.684;10.484;2023-03-08T00:28:56;4.15;;;3.53;;
26488;SDS011;14169;43.684;10.484;2023-03-08T00:31:22;6.63;;;3.22;;
26488;SDS011;14169;43.684;10.484;2023-03-08T00:33:50;3.97;;;2.90;;
26488;SDS011;14169;43.684;10.484;2023-03-08T00:36:18;4.35;;;2.85;;
26488;SDS011;14169;43.684;10.484;2023-03-08T00:38:44;5.28;;;3.13;;
26488;SDS011;14169;43.684;10.484;2023-03-08T00:41:11;5.38;;;3.85;;
26488;SDS011;14169;43.684;10.484;2023-03-08T00:43:38;4.47;;;3.40;;
26488;SDS011;14169;43.684;10.484;2023-03-08T00:46:06;5.70;;;3.55;;
26488;SDS011;14169;43.684;10.484;2023-03-08T00:48:31;4.20;;;2.88;;
26488;SDS011;14169;43.684;10.484;2023-03-08T00:50:57;4.53;;;2.85;;
26488;SDS011;14169;43.684;10.484;2023-03-08T00:53:22;5.28;;;3.28;;
26488;SDS011;14169;43.684;10.484;2023-03-08T00:55:52;4.55;;;3.15;;
26488;SDS011;14169;43.684;10.484;2023-03-08T00:58:19;6.45;;;3.53;;
26488;SDS011;14169;43.684;10.484;2023-03-08T01:00:45;5.15;;;3.55;;
26488;SDS011;14169;43.684;10.484;2023-03-08T01:03:11;7.55;;;3.90;;
26488;SDS011;14169;43.684;10.484;2023-03-08T01:05:40;3.63;;;3.13;;
26488;SDS011;14169;43.684;10.484;2023-03-08T01:08:07;4.50;;;3.17;;
26488;SDS011;14169;43.684;10.484;2023-03-08T01:10:33;5.15;;;2.72;;
26488;SDS011;14169;43.684;10.484;2023-03-08T01:12:59;3.53;;;3.15;;
26488;SDS011;14169;43.684;10.484;2023-03-08T01:15:24;4.78;;;3.17;;
26488;SDS011;14169;43.684;10.484;2023-03-08T01:17:49;4.82;;;3.17;;
26488;SDS011;14169;43.684;10.484;2023-03-08T01:20:15;5.03;;;3.15;;
26488;SDS011;14169;43.684;10.484;2023-03-08T01:22:40;5.32;;;3.10;;
26488;SDS011;14169;43.684;10.484;2023-03-08T01:25:06;3.30;;;3.00;;
26488;SDS011;14169;43.684;10.484;2023-03-08T01:27:31;5.28;;;3.42;;
26488;SDS011;14169;43.684;10.484;2023-03-08T01:29:57;3.70;;;3.00;;
26488;SDS011;14169;43.684;10.484;2023-03-08T01:32:22;3.67;;;2.80;;
26488;SDS011;14169;43.684;10.484;2023-03-08T01:34:48;3.50;;;3.20;;
26488;SDS011;14169;43.684;10.484;2023-03-08T01:37:13;5.10;;;3.28;;
26488;SDS011;14169;43.684;10.484;2023-03-08T01:39:38;4.57;;;2.85;;
26488;SDS011;14169;43.684;10.484;2023-03-08T01:42:04;3.90;;;2.80;;
26488;SDS011;14169;43.684;10.484;2023-03-08T01:44:47;5.57;;;3.25;;
26488;SDS011;14169;43.684;10.484;2023-03-08T01:47:29;2.63;;;2.42;;
26488;SDS011;14169;43.684;10.484;2023-03-08T01:50:01;3.50;;;2.75;;
26488;SDS011;14169;43.684;10.484;2023-03-08T01:52:30;3.80;;;2.10;;
26488;SDS011;14169;43.684;10.484;2023-03-08T01:55:01;3.42;;;2.55;;
26488;SDS011;14169;43.684;10.484;2023-03-08T01:57:30;4.22;;;3.25;;
26488;SDS011;14169;43.684;10.484;2023-03-08T02:00:03;3.95;;;3.55;;
26488;SDS011;14169;43.684;10.484;2023-03-08T02:02:33;5.07;;;3.50;;
26488;SDS011;14169;43.684;10.484;2023-03-08T02:05:04;5.05;;;3.53;;
26488;SDS011;14169;43.684;10.484;2023-03-08T02:07:30;6.35;;;4.10;;
26488;SDS011;14169;43.684;10.484;2023-03-08T02:09:56;4.97;;;4.10;;
26488;SDS011;14169;43.684;10.484;2023-03-08T02:12:21;5.07;;;4.50;;
26488;SDS011;14169;43.684;10.484;2023-03-08T02:14:47;4.03;;;3.65;;
26488;SDS011;14169;43.684;10.484;2023-03-08T02:17:13;6.03;;;3.42;;
26488;SDS011;14169;43.684;10.484;2023-03-08T02:22:19;6.30;;;4.07;;
26488;SDS011;14169;43.684;10.484;2023-03-08T02:24:45;4.45;;;4.05;;
26488;SDS011;14169;43.684;10.484;2023-03-08T02:27:19;8.68;;;4.10;;
26488;SDS011;14169;43.684;10.484;2023-03-08T02:29:47;4.35;;;3.25;;
26488;SDS011;14169;43.684;10.484;2023-03-08T02:32:13;3.90;;;3.50;;
26488;SDS011;14169;43.684;10.484;2023-03-08T02:34:39;4.22;;;3.35;;
26488;SDS011;14169;43.684;10.484;2023-03-08T02:37:05;4.25;;;3.85;;
26488;SDS011;14169;43.684;10.484;2023-03-08T02:39:30;4.07;;;3.63;;
26488;SDS011;14169;43.684;10.484;2023-03-08T02:41:56;6.55;;;3.85;;
26488;SDS011;14169;43.684;10.484;2023-03-08T02:44:21;5.78;;;3.60;;
26488;SDS011;14169;43.684;10.484;2023-03-08T02:46:47;4.28;;;3.30;;
26488;SDS011;14169;43.684;10.484;2023-03-08T02:49:12;3.75;;;3.40;;
26488;SDS011;14169;43.684;10.484;2023-03-08T02:51:38;8.27;;;4.10;;
26488;SDS011;14169;43.684;10.484;2023-03-08T02:54:03;4.47;;;3.92;;
26488;SDS011;14169;43.684;10.484;2023-03-08T02:56:29;5.95;;;3.88;;
26488;SDS011;14169;43.684;10.484;2023-03-08T02:58:54;10.32;;;4.32;;
26488;SDS011;14169;43.684;10.484;2023-03-08T03:01:20;5.28;;;4.20;;
26488;SDS011;14169;43.684;10.484;2023-03-08T03:03:45;6.95;;;4.75;;
26488;SDS011;14169;43.684;10.484;2023-03-08T03:06:14;5.28;;;4.78;;
26488;SDS011;14169;43.684;10.484;2023-03-08T03:08:40;5.35;;;4.80;;
26488;SDS011;14169;43.684;10.484;2023-03-08T03:11:12;7.38;;;4.85;;
26488;SDS011;14169;43.684;10.484;2023-03-08T03:13:39;5.25;;;4.00;;
26488;SDS011;14169;43.684;10.484;2023-03-08T03:16:08;5.05;;;3.88;;
26488;SDS011;14169;43.684;10.484;2023-03-08T03:18:38;4.63;;;3.97;;
26488;SDS011;14169;43.684;10.484;2023-03-08T03:21:04;4.65;;;4.18;;
26488;SDS011;14169;43.684;10.484;2023-03-08T03:23:33;4.50;;;4.10;;
26488;SDS011;14169;43.684;10.484;2023-03-08T03:26:05;4.80;;;4.30;;
26488;SDS011;14169;43.684;10.484;2023-03-08T03:28:33;5.50;;;3.92;;
26488;SDS011;14169;43.684;10.484;2023-03-08T03:30:58;5.47;;;4.70;;
26488;SDS011;14169;43.684;10.484;2023-03-08T03:33:24;4.60;;;4.13;;
26488;SDS011;14169;43.684;10.484;2023-03-08T03:35:50;4.93;;;4.47;;
26488;SDS011;14169;43.684;10.484;2023-03-08T03:38:15;5.55;;;4.40;;
26488;SDS011;14169;43.684;10.484;2023-03-08T03:40:42;6.15;;;4.40;;
26488;SDS011;14169;43.684;10.484;2023-03-08T03:43:07;4.47;;;4.07;;
26488;SDS011;14169;43.684;10.484;2023-03-08T03:45:33;6.10;;;4.05;;
26488;SDS011;14169;43.684;10.484;2023-03-08T03:47:58;5.68;;;4.55;;
26488;SDS011;14169;43.684;10.484;2023-03-08T03:50:24;5.00;;;4.03;;
26488;SDS011;14169;43.684;10.484;2023-03-08T03:52:49;6.85;;;3.80;;
26488;SDS011;14169;43.684;10.484;2023-03-08T03:55:14;7.22;;;4.30;;
26488;SDS011;14169;43.684;10.484;2023-03-08T03:57:40;6.18;;;4.40;;
26488;SDS011;14169;43.684;10.484;2023-03-08T04:00:06;5.57;;;3.90;;
26488;SDS011;14169;43.684;10.484;2023-03-08T04:02:32;4.53;;;3.45;;
26488;SDS011;14169;43.684;10.484;2023-03-08T04:04:58;5.35;;;3.53;;
26488;SDS011;14169;43.684;10.484;2023-03-08T04:07:23;10.27;;;3.95;;
26488;SDS011;14169;43.684;10.484;2023-03-08T04:09:49;7.05;;;4.50;;
26488;SDS011;14169;43.684;10.484;2023-03-08T04:12:14;4.65;;;3.67;;
26488;SDS011;14169;43.684;10.484;2023-03-08T04:14:39;4.35;;;3.72;;
26488;SDS011;14169;43.684;10.484;2023-03-08T04:17:05;5.65;;;3.50;;
26488;SDS011;14169;43.684;10.484;2023-03-08T04:19:31;6.40;;;4.47;;
26488;SDS011;14169;43.684;10.484;2023-03-08T04:21:56;5.50;;;4.15;;
26488;SDS011;14169;43.684;10.484;2023-03-08T04:24:22;5.85;;;4.30;;
26488;SDS011;14169;43.684;10.484;2023-03-08T04:26:47;6.10;;;4.13;;
26488;SDS011;14169;43.684;10.484;2023-03-08T04:29:13;5.30;;;4.57;;
26488;SDS011;14169;43.684;10.484;2023-03-08T04:31:38;4.93;;;4.43;;
26488;SDS011;14169;43.684;10.484;2023-03-08T04:34:04;5.65;;;4.28;;
26488;SDS011;14169;43.684;10.484;2023-03-08T04:36:29;4.70;;;3.70;;
26488;SDS011;14169;43.684;10.484;2023-03-08T04:38:55;6.53;;;3.88;;
26488;SDS011;14169;43.684;10.484;2023-03-08T04:41:21;5.55;;;4.05;;
26488;SDS011;14169;43.684;10.484;2023-03-08T04:43:48;5.05;;;3.45;;
26488;SDS011;14169;43.684;10.484;2023-03-08T04:46:16;6.25;;;4.03;;
26488;SDS011;14169;43.684;10.484;2023-03-08T04:48:42;4.05;;;3.65;;
26488;SDS011;14169;43.684;10.484;2023-03-08T04:51:09;5.15;;;3.72;;
26488;SDS011;14169;43.684;10.484;2023-03-08T04:53:36;5.43;;;3.78;;
26488;SDS011;14169;43.684;10.484;2023-03-08T04:56:03;4.82;;;4.32;;
26488;SDS011;14169;43.684;10.484;2023-03-08T04:58:30;5.35;;;3.92;;
26488;SDS011;14169;43.684;10.484;2023-03-08T05:00:56;4.97;;;3.88;;
26488;SDS011;14169;43.684;10.484;2023-03-08T05:03:22;6.63;;;5.03;;
26488;SDS011;14169;43.684;10.484;2023-03-08T05:05:48;5.13;;;4.63;;
26488;SDS011;14169;43.684;10.484;2023-03-08T05:08:19;5.28;;;4.00;;
26488;SDS011;14169;43.684;10.484;2023-03-08T05:10:48;5.20;;;4.13;;
26488;SDS011;14169;43.684;10.484;2023-03-08T05:13:17;4.68;;;3.92;;
26488;SDS011;14169;43.684;10.484;2023-03-08T05:15:42;6.22;;;3.92;;
26488;SDS011;14169;43.684;10.484;2023-03-08T05:18:08;4.47;;;4.07;;
26488;SDS011;14169;43.684;10.484;2023-03-08T05:20:33;5.53;;;3.95;;
26488;SDS011;14169;43.684;10.484;2023-03-08T05:22:59;3.58;;;3.28;;
26488;SDS011;14169;43.684;10.484;2023-03-08T05:25:24;4.32;;;3.92;;
26488;SDS011;14169;43.684;10.484;2023-03-08T05:27:49;4.25;;;3.83;;
26488;SDS011;14169;43.684;10.484;2023-03-08T05:30:15;4.80;;;4.10;;
26488;SDS011;14169;43.684;10.484;2023-03-08T05:32:40;5.85;;;4.75;;
26488;SDS011;14169;43.684;10.484;2023-03-08T05:35:06;5.72;;;4.28;;
26488;SDS011;14169;43.684;10.484;2023-03-08T05:37:33;4.72;;;4.30;;
26488;SDS011;14169;43.684;10.484;2023-03-08T05:39:58;5.32;;;3.90;;
26488;SDS011;14169;43.684;10.484;2023-03-08T05:42:23;4.85;;;4.28;;
26488;SDS011;14169;43.684;10.484;2023-03-08T05:44:51;4.30;;;3.85;;
26488;SDS011;14169;43.684;10.484;2023-03-08T05:47:16;7.88;;;4.20;;
26488;SDS011;14169;43.684;10.484;2023-03-08T05:49:42;5.93;;;4.38;;
26488;SDS011;14169;43.684;10.484;2023-03-08T05:52:07;4.50;;;3.80;;
26488;SDS011;14169;43.684;10.484;2023-03-08T05:54:33;6.80;;;4.38;;
26488;SDS011;14169;43.684;10.484;2023-03-08T05:56:58;5.85;;;3.92;;
26488;SDS011;14169;43.684;10.484;2023-03-08T05:59:23;4.80;;;3.15;;
26488;SDS011;14169;43.684;10.484;2023-03-08T06:01:50;9.68;;;3.90;;
26488;SDS011;14169;43.684;10.484;2023-03-08T06:04:16;5.65;;;4.38;;
26488;SDS011;14169;43.684;10.484;2023-03-08T06:06:41;4.47;;;3.90;;
26488;SDS011;14169;43.684;10.484;2023-03-08T06:09:06;6.32;;;4.20;;
26488;SDS011;14169;43.684;10.484;2023-03-08T06:11:32;8.18;;;5.32;;
26488;SDS011;14169;43.684;10.484;2023-03-08T06:13:57;5.22;;;4.32;;
26488;SDS011;14169;43.684;10.484;2023-03-08T06:16:23;5.55;;;4.07;;
26488;SDS011;14169;43.684;10.484;2023-03-08T06:18:48;4.20;;;3.15;;
26488;SDS011;14169;43.684;10.484;2023-03-08T06:21:14;5.43;;;4.25;;
26488;SDS011;14169;43.684;10.484;2023-03-08T06:23:42;5.60;;;3.85;;
26488;SDS011;14169;43.684;10.484;2023-03-08T06:26:08;8.23;;;3.67;;
26488;SDS011;14169;43.684;10.484;2023-03-08T06:28:34;5.38;;;4.45;;
26488;SDS011;14169;43.684;10.484;2023-03-08T06:31:01;4.78;;;3.55;;
26488;SDS011;14169;43.684;10.484;2023-03-08T06:33:28;4.18;;;3.53;;
26488;SDS011;14169;43.684;10.484;2023-03-08T06:38:25;4.90;;;3.80;;
26488;SDS011;14169;43.684;10.484;2023-03-08T06:40:51;4.15;;;3.67;;
26488;SDS011;14169;43.684;10.484;2023-03-08T06:43:16;5.10;;;4.00;;
26488;SDS011;14169;43.684;10.484;2023-03-08T06:45:42;7.30;;;4.20;;
26488;SDS011;14169;43.684;10.484;2023-03-08T06:48:07;5.03;;;3.75;;
26488;SDS011;14169;43.684;10.484;2023-03-08T06:50:33;4.57;;;3.67;;
26488;SDS011;14169;43.684;10.484;2023-03-08T06:52:59;4.45;;;3.70;;
26488;SDS011;14169;43.684;10.484;2023-03-08T06:55:24;3.90;;;3.47;;
26488;SDS011;14169;43.684;10.484;2023-03-08T06:57:50;3.65;;;3.00;;
26488;SDS011;14169;43.684;10.484;2023-03-08T07:00:16;4.05;;;3.40;;
26488;SDS011;14169;43.684;10.484;2023-03-08T07:02:42;5.93;;;3.67;;
26488;SDS011;14169;43.684;10.484;2023-03-08T07:05:07;3.83;;;3.30;;
26488;SDS011;14169;43.684;10.484;2023-03-08T07:07:33;4.50;;;3.65;;
26488;SDS011;14169;43.684;10.484;2023-03-08T07:10:00;6.05;;;3.55;;
26488;SDS011;14169;43.684;10.484;2023-03-08T07:12:27;7.53;;;2.90;;
26488;SDS011;14169;43.684;10.484;2023-03-08T07:14:52;4.07;;;3.00;;
26488;SDS011;14169;43.684;10.484;2023-03-08T07:17:17;4.90;;;3.15;;
26488;SDS011;14169;43.684;10.484;2023-03-08T07:19:44;5.68;;;3.72;;
26488;SDS011;14169;43.684;10.484;2023-03-08T07:22:09;4.53;;;3.17;;
26488;SDS011;14169;43.684;10.484;2023-03-08T07:24:37;6.97;;;4.20;;
26488;SDS011;14169;43.684;10.484;2023-03-08T07:27:02;4.40;;;4.00;;
26488;SDS011;14169;43.684;10.484;2023-03-08T07:29:29;5.03;;;3.55;;
26488;SDS011;14169;43.684;10.484;2023-03-08T07:31:54;5.85;;;3.80;;
26488;SDS011;14169;43.684;10.484;2023-03-08T07:34:20;4.82;;;3.63;;
26488;SDS011;14169;43.684;10.484;2023-03-08T07:36:45;4.07;;;3.45;;
26488;SDS011;14169;43.684;10.484;2023-03-08T07:39:10;6.28;;;3.47;;
26488;SDS011;14169;43.684;10.484;2023-03-08T07:41:36;5.75;;;3.53;;
26488;SDS011;14169;43.684;10.484;2023-03-08T07:44:01;4.53;;;3.38;;
26488;SDS011;14169;43.684;10.484;2023-03-08T07:46:27;6.10;;;3.78;;
26488;SDS011;14169;43.684;10.484;2023-03-08T07:48:53;4.65;;;3.47;;
26488;SDS011;14169;43.684;10.484;2023-03-08T07:51:18;5.32;;;3.90;;
26488;SDS011;14169;43.684;10.484;2023-03-08T07:53:44;6.80;;;4.53;;
26488;SDS011;14169;43.684;10.484;2023-03-08T07:56:09;4.32;;;3.53;;
26488;SDS011;14169;43.684;10.484;2023-03-08T07:58:35;6.20;;;4.82;;
26488;SDS011;14169;43.684;10.484;2023-03-08T08:01:06;6.40;;;4.93;;
26488;SDS011;14169;43.684;10.484;2023-03-08T08:03:32;5.25;;;4.75;;
26488;SDS011;14169;43.684;10.484;2023-03-08T08:06:00;6.00;;;3.53;;
26488;SDS011;14169;43.684;10.484;2023-03-08T08:08:28;7.05;;;4.22;;
26488;SDS011;14169;43.684;10.484;2023-03-08T08:10:53;4.25;;;3.47;;
26488;SDS011;14169;43.684;10.484;2023-03-08T08:13:18;7.22;;;3.47;;
26488;SDS011;14169;43.684;10.484;2023-03-08T08:15:44;5.53;;;3.85;;
26488;SDS011;14169;43.684;10.484;2023-03-08T08:18:09;5.00;;;3.28;;
26488;SDS011;14169;43.684;10.484;2023-03-08T08:20:35;7.40;;;3.70;;
26488;SDS011;14169;43.684;10.484;2023-03-08T08:23:00;10.15;;;4.20;;
26488;SDS011;14169;43.684;10.484;2023-03-08T08:25:26;6.00;;;3.90;;
26488;SDS011;14169;43.684;10.484;2023-03-08T08:27:51;8.38;;;3.22;;
26488;SDS011;14169;43.684;10.484;2023-03-08T08:30:16;5.38;;;3.90;;
26488;SDS011;14169;43.684;10.484;2023-03-08T08:32:42;8.82;;;4.82;;
26488;SDS011;14169;43.684;10.484;2023-03-08T08:35:07;7.88;;;4.45;;
26488;SDS011;14169;43.684;10.484;2023-03-08T08:37:33;9.95;;;5.70;;
26488;SDS011;14169;43.684;10.484;2023-03-08T08:39:59;5.93;;;3.28;;
26488;SDS011;14169;43.684;10.484;2023-03-08T08:42:24;7.30;;;3.78;;
26488;SDS011;14169;43.684;10.484;2023-03-08T08:44:53;9.02;;;3.95;;
26488;SDS011;14169;43.684;10.484;2023-03-08T08:47:19;8.32;;;3.92;;
26488;SDS011;14169;43.684;10.484;2023-03-08T08:49:44;8.30;;;4.10;;
26488;SDS011;14169;43.684;10.484;2023-03-08T08:52:10;8.18;;;5.10;;
26488;SDS011;14169;43.684;10.484;2023-03-08T08:54:35;7.38;;;5.20;;
26488;SDS011;14169;43.684;10.484;2023-03-08T08:57:04;5.78;;;4.90;;
26488;SDS011;14169;43.684;10.484;2023-03-08T08:59:30;10.25;;;5.70;;
26488;SDS011;14169;43.684;10.484;2023-03-08T09:01:56;9.18;;;4.63;;
26488;SDS011;14169;43.684;10.484;2023-03-08T09:04:21;23.40;;;5.18;;
26488;SDS011;14169;43.684;10.484;2023-03-08T09:06:47;9.43;;;4.22;;
26488;SDS011;14169;43.684;10.484;2023-03-08T09:09:12;9.77;;;4.65;;
26488;SDS011;14169;43.684;10.484;2023-03-08T09:11:37;5.15;;;3.50;;
26488;SDS011;14169;43.684;10.484;2023-03-08T09:14:03;11.00;;;4.90;;
26488;SDS011;14169;43.684;10.484;2023-03-08T09:16:29;10.18;;;4.03;;
26488;SDS011;14169;43.684;10.484;2023-03-08T09:18:57;10.60;;;4.32;;
26488;SDS011;14169;43.684;10.484;2023-03-08T09:21:24;15.93;;;5.22;;
26488;SDS011;14169;43.684;10.484;2023-03-08T09:23:50;14.60;;;4.50;;
26488;SDS011;14169;43.684;10.484;2023-03-08T09:26:16;15.50;;;5.22;;
26488;SDS011;14169;43.684;10.484;2023-03-08T09:28:41;7.05;;;3.85;;
26488;SDS011;14169;43.684;10.484;2023-03-08T09:31:08;10.77;;;4.75;;
26488;SDS011;14169;43.684;10.484;2023-03-08T09:33:40;6.45;;;3.92;;
26488;SDS011;14169;43.684;10.484;2023-03-08T09:36:06;15.32;;;4.70;;
26488;SDS011;14169;43.684;10.484;2023-03-08T09:38:32;8.35;;;3.53;;
26488;SDS011;14169;43.684;10.484;2023-03-08T09:43:46;14.88;;;4.72;;
26488;SDS011;14169;43.684;10.484;2023-03-08T09:46:35;9.13;;;3.15;;
26488;SDS011;14169;43.684;10.484;2023-03-08T09:49:04;12.52;;;3.13;;
26488;SDS011;14169;43.684;10.484;2023-03-08T09:51:37;15.88;;;4.07;;
26488;SDS011;14169;43.684;10.484;2023-03-08T09:54:10;6.63;;;2.53;;
26488;SDS011;14169;43.684;10.484;2023-03-08T09:56:49;8.38;;;2.70;;
26488;SDS011;14169;43.684;10.484;2023-03-08T09:59:22;10.32;;;2.35;;
26488;SDS011;14169;43.684;10.484;2023-03-08T10:15:43;9.65;;;3.53;;
26488;SDS011;14169;43.684;10.484;2023-03-08T10:18:22;9.60;;;2.03;;
26488;SDS011;14169;43.684;10.484;2023-03-08T10:20:58;7.47;;;2.60;;
26488;SDS011;14169;43.684;10.484;2023-03-08T10:23:26;6.22;;;2.47;;
26488;SDS011;14169;43.684;10.484;2023-03-08T10:25:53;14.07;;;3.00;;
26488;SDS011;14169;43.684;10.484;2023-03-08T10:28:20;6.75;;;2.70;;
26488;SDS011;14169;43.684;10.484;2023-03-08T10:30:54;6.13;;;2.55;;
26488;SDS011;14169;43.684;10.484;2023-03-08T10:33:28;10.88;;;2.47;;
26488;SDS011;14169;43.684;10.484;2023-03-08T10:35:58;12.77;;;3.13;;
26488;SDS011;14169;43.684;10.484;2023-03-08T10:38:28;6.03;;;2.10;;
26488;SDS011;14169;43.684;10.484;2023-03-08T10:43:35;5.90;;;2.15;;
26488;SDS011;14169;43.684;10.484;2023-03-08T10:46:05;8.13;;;2.08;;
26488;SDS011;14169;43.684;10.484;2023-03-08T10:48:36;11.25;;;3.03;;
26488;SDS011;14169;43.684;10.484;2023-03-08T10:51:03;8.68;;;3.00;;
26488;SDS011;14169;43.684;10.484;2023-03-08T10:53:31;4.57;;;2.08;;
26488;SDS011;14169;43.684;10.484;2023-03-08T10:55:58;6.78;;;2.13;;
26488;SDS011;14169;43.684;10.484;2023-03-08T10:58:26;9.05;;;2.58;;
26488;SDS011;14169;43.684;10.484;2023-03-08T11:00:53;10.35;;;2.72;;
26488;SDS011;14169;43.684;10.484;2023-03-08T11:03:21;6.93;;;2.15;;
26488;SDS011;14169;43.684;10.484;2023-03-08T11:05:58;6.25;;;2.17;;
26488;SDS011;14169;43.684;10.484;2023-03-08T11:11:10;6.88;;;2.10;;
26488;SDS011;14169;43.684;10.484;2023-03-08T11:13:38;5.05;;;2.25;;
26488;SDS011;14169;43.684;10.484;2023-03-08T11:16:17;5.30;;;2.03;;
26488;SDS011;14169;43.684;10.484;2023-03-08T11:19:04;10.27;;;2.35;;
26488;SDS011;14169;43.684;10.484;2023-03-08T11:21:42;6.25;;;2.60;;
26488;SDS011;14169;43.684;10.484;2023-03-08T11:24:15;11.52;;;2.47;;
26488;SDS011;14169;43.684;10.484;2023-03-08T11:29:48;8.00;;;3.63;;
26488;SDS011;14169;43.684;10.484;2023-03-08T11:40:25;9.35;;;2.33;;
26488;SDS011;14169;43.684;10.484;2023-03-08T11:45:43;7.07;;;2.50;;
26488;SDS011;14169;43.684;10.484;2023-03-08T11:48:14;6.63;;;2.20;;
26488;SDS011;14169;43.684;10.484;2023-03-08T11:56:18;6.63;;;2.00;;
26488;SDS011;14169;43.684;10.484;2023-03-08T11:58:54;7.70;;;2.63;;
26488;SDS011;14169;43.684;10.484;2023-03-08T12:01:31;6.78;;;2.20;;
26488;SDS011;14169;43.684;10.484;2023-03-08T12:04:19;13.80;;;3.08;;
26488;SDS011;14169;43.684;10.484;2023-03-08T12:06:50;5.63;;;2.72;;
26488;SDS011;14169;43.684;10.484;2023-03-08T12:09:26;14.30;;;2.92;;
26488;SDS011;14169;43.684;10.484;2023-03-08T12:11:59;7.75;;;2.17;;
26488;SDS011;14169;43.684;10.484;2023-03-08T12:14:51;16.65;;;2.85;;
26488;SDS011;14169;43.684;10.484;2023-03-08T12:17:33;15.10;;;3.17;;
26488;SDS011;14169;43.684;10.484;2023-03-08T12:20:02;9.13;;;2.42;;
26488;SDS011;14169;43.684;10.484;2023-03-08T12:25:33;9.65;;;2.70;;
26488;SDS011;14169;43.684;10.484;2023-03-08T12:28:14;6.60;;;2.05;;
26488;SDS011;14169;43.684;10.484;2023-03-08T12:34:10;8.98;;;2.45;;
26488;SDS011;14169;43.684;10.484;2023-03-08T12:36:39;10.27;;;2.85;;
26488;SDS011;14169;43.684;10.484;2023-03-08T12:39:08;9.02;;;2.78;;
26488;SDS011;14169;43.684;10.484;2023-03-08T12:41:57;13.02;;;3.03;;
26488;SDS011;14169;43.684;10.484;2023-03-08T12:44:26;11.57;;;2.33;;
26488;SDS011;14169;43.684;10.484;2023-03-08T12:46:57;14.32;;;2.28;;
26488;SDS011;14169;43.684;10.484;2023-03-08T12:49:32;6.32;;;2.60;;
26488;SDS011;14169;43.684;10.484;2023-03-08T12:52:02;8.23;;;3.05;;
26488;SDS011;14169;43.684;10.484;2023-03-08T12:54:31;11.80;;;2.70;;
26488;SDS011;14169;43.684;10.484;2023-03-08T12:56:59;8.27;;;2.30;;
26488;SDS011;14169;43.684;10.484;2023-03-08T12:59:34;15.80;;;4.18;;
26488;SDS011;14169;43.684;10.484;2023-03-08T13:04:41;14.80;;;2.40;;
26488;SDS011;14169;43.684;10.484;2023-03-08T13:10:20;9.98;;;2.67;;
26488;SDS011;14169;43.684;10.484;2023-03-08T13:13:03;9.60;;;1.85;;
26488;SDS011;14169;43.684;10.484;2023-03-08T13:15:35;11.25;;;2.95;;
26488;SDS011;14169;43.684;10.484;2023-03-08T13:30:41;9.30;;;2.53;;
26488;SDS011;14169;43.684;10.484;2023-03-08T13:33:14;8.13;;;2.38;;
26488;SDS011;14169;43.684;10.484;2023-03-08T13:35:52;6.03;;;1.92;;
26488;SDS011;14169;43.684;10.484;2023-03-08T13:38:20;9.95;;;2.22;;
26488;SDS011;14169;43.684;10.484;2023-03-08T13:40:53;13.77;;;3.08;;
26488;SDS011;14169;43.684;10.484;2023-03-08T13:43:21;13.65;;;3.35;;
26488;SDS011;14169;43.684;10.484;2023-03-08T13:45:48;11.25;;;2.95;;
26488;SDS011;14169;43.684;10.484;2023-03-08T13:48:16;8.93;;;3.00;;
26488;SDS011;14169;43.684;10.484;2023-03-08T13:50:44;18.52;;;3.33;;
26488;SDS011;14169;43.684;10.484;2023-03-08T13:53:21;11.48;;;2.50;;
26488;SDS011;14169;43.684;10.484;2023-03-08T13:55:50;10.18;;;2.38;;
26488;SDS011;14169;43.684;10.484;2023-03-08T13:58:25;15.35;;;3.10;;
26488;SDS011;14169;43.684;10.484;2023-03-08T14:03:40;10.25;;;2.50;;
26488;SDS011;14169;43.684;10.484;2023-03-08T14:06:23;9.45;;;2.85;;
26488;SDS011;14169;43.684;10.484;2023-03-08T14:08:52;7.90;;;3.40;;
26488;SDS011;14169;43.684;10.484;2023-03-08T14:11:20;7.75;;;2.75;;
26488;SDS011;14169;43.684;10.484;2023-03-08T14:13:48;13.85;;;2.45;;
26488;SDS011;14169;43.684;10.484;2023-03-08T14:16:32;13.23;;;2.40;;
26488;SDS011;14169;43.684;10.484;2023-03-08T14:21:50;12.82;;;2.72;;
26488;SDS011;14169;43.684;10.484;2023-03-08T14:24:20;13.02;;;2.83;;
26488;SDS011;14169;43.684;10.484;2023-03-08T14:29:25;21.88;;;3.33;;
26488;SDS011;14169;43.684;10.484;2023-03-08T14:37:25;8.15;;;2.80;;
26488;SDS011;14169;43.684;10.484;2023-03-08T14:39:53;14.70;;;3.38;;
26488;SDS011;14169;43.684;10.484;2023-03-08T14:42:24;10.55;;;4.10;;
26488;SDS011;14169;43.684;10.484;2023-03-08T14:45:02;14.00;;;3.28;;
26488;SDS011;14169;43.684;10.484;2023-03-08T14:47:30;10.75;;;2.55;;
26488;SDS011;14169;43.684;10.484;2023-03-08T14:50:03;22.02;;;3.42;;
26488;SDS011;14169;43.684;10.484;2023-03-08T14:52:29;18.15;;;3.00;;
26488;SDS011;14169;43.684;10.484;2023-03-08T14:54:55;13.07;;;3.67;;
26488;SDS011;14169;43.684;10.484;2023-03-08T14:57:22;10.27;;;3.45;;
26488;SDS011;14169;43.684;10.484;2023-03-08T14:59:52;11.75;;;3.40;;
26488;SDS011;14169;43.684;10.484;2023-03-08T15:02:20;12.23;;;3.47;;
26488;SDS011;14169;43.684;10.484;2023-03-08T15:04:46;12.23;;;3.00;;
26488;SDS011;14169;43.684;10.484;2023-03-08T15:07:16;12.10;;;2.47;;
26488;SDS011;14169;43.684;10.484;2023-03-08T15:09:44;10.68;;;3.17;;
26488;SDS011;14169;43.684;10.484;2023-03-08T15:12:11;12.75;;;2.92;;
26488;SDS011;14169;43.684;10.484;2023-03-08T15:14:37;15.25;;;2.97;;
26488;SDS011;14169;43.684;10.484;2023-03-08T15:17:03;10.00;;;2.92;;
26488;SDS011;14169;43.684;10.484;2023-03-08T15:19:28;15.80;;;3.67;;
26488;SDS011;14169;43.684;10.484;2023-03-08T15:21:54;17.35;;;3.05;;
26488;SDS011;14169;43.684;10.484;2023-03-08T15:24:19;20.02;;;3.47;;
26488;SDS011;14169;43.684;10.484;2023-03-08T15:26:46;19.40;;;3.40;;
26488;SDS011;14169;43.684;10.484;2023-03-08T15:29:25;21.15;;;4.53;;
26488;SDS011;14169;43.684;10.484;2023-03-08T15:31:52;12.50;;;3.50;;
26488;SDS011;14169;43.684;10.484;2023-03-08T15:34:18;13.27;;;4.57;;
26488;SDS011;14169;43.684;10.484;2023-03-08T15:36:44;14.77;;;4.88;;
26488;SDS011;14169;43.684;10.484;2023-03-08T15:39:10;17.35;;;2.90;;
26488;SDS011;14169;43.684;10.484;2023-03-08T15:41:36;12.27;;;3.97;;
26488;SDS011;14169;43.684;10.484;2023-03-08T15:44:02;15.23;;;3.08;;
26488;SDS011;14169;43.684;10.484;2023-03-08T15:46:27;14.75;;;3.25;;
26488;SDS011;14169;43.684;10.484;2023-03-08T15:48:53;10.88;;;3.00;;
26488;SDS011;14169;43.684;10.484;2023-03-08T15:51:19;9.85;;;2.70;;
26488;SDS011;14169;43.684;10.484;2023-03-08T15:53:46;20.60;;;4.82;;
26488;SDS011;14169;43.684;10.484;2023-03-08T15:56:13;13.57;;;3.50;;
26488;SDS011;14169;43.684;10.484;2023-03-08T15:58:39;14.40;;;3.45;;
26488;SDS011;14169;43.684;10.484;2023-03-08T16:01:04;18.63;;;2.90;;